Aviation Digital Data Service (ADDS)

Output produced by METARs form (2356 UTC 30 September 2014)
found at http://www.aviationweather.gov/adds/metars/
 
KLGA 302340Z 0100/0124 05012KT P6SM SCT015 SCT025 OVC060 
     TEMPO 0100/0104 BKN015 
     FM010400 02012KT P6SM OVC015 
     FM011600 02014G20KT 6SM -SHRA SCT015 BKN025